Juanjui Airport


Codes: SPJI/JJI
Name: Juanjui Airport
City: Juanjui
Country: Peru
Elevation: 1148 ft.

Photos at Juanjui Airport


   Photos courtesy of SpottingLog. You can add your own sightings and photos by signing up for a free trial today.



No photos found.

Weather at Juanjui Airport


Time (UTC)DescriptionTempratureWindCloud coverageVisibilityPressureHumidity
25-Jun-2024 15:00Overcast Clouds25°C0 mph, SE98%10000m1015hPa76%
25-Jun-2024 18:00Overcast Clouds30°C4 mph, E87%10000m1013hPa56%
25-Jun-2024 21:00Broken Clouds31°C2 mph, E77%10000m1009hPa49%
26-Jun-2024 00:00Broken Clouds25°C2 mph, W70%10000m1011hPa68%
26-Jun-2024 03:00Broken Clouds23°C2 mph, NW77%10000m1014hPa77%
26-Jun-2024 06:00Scattered Clouds21°C2 mph, SW50%10000m1014hPa83%
26-Jun-2024 09:00Broken Clouds20°C2 mph, W55%10000m1014hPa87%
26-Jun-2024 12:00Scattered Clouds21°C0 mph, SW45%10000m1015hPa86%
26-Jun-2024 15:00Broken Clouds29°C0 mph, NE53%10000m1016hPa56%
26-Jun-2024 18:00Scattered Clouds33°C4 mph, E30%10000m1012hPa41%
26-Jun-2024 21:00Clear Sky32°C4 mph, E2%10000m1009hPa39%
27-Jun-2024 00:00Few Clouds25°C0 mph, NW11%10000m1011hPa68%
27-Jun-2024 03:00Broken Clouds23°C2 mph, W77%10000m1014hPa77%
27-Jun-2024 06:00Broken Clouds22°C2 mph, W68%10000m1013hPa80%
27-Jun-2024 09:00Clear Sky20°C2 mph, NW0%10000m1013hPa88%
27-Jun-2024 12:00Few Clouds20°C0 mph, W14%10000m1015hPa90%
27-Jun-2024 15:00Clear Sky29°C2 mph, E10%10000m1015hPa55%
27-Jun-2024 18:00Clear Sky33°C4 mph, E10%10000m1011hPa43%
27-Jun-2024 21:00Broken Clouds32°C2 mph, E67%10000m1008hPa41%
28-Jun-2024 00:00Broken Clouds25°C2 mph, NW70%10000m1009hPa64%
28-Jun-2024 03:00Broken Clouds23°C2 mph, W59%10000m1011hPa74%
28-Jun-2024 06:00Broken Clouds22°C2 mph, W55%10000m1011hPa80%
28-Jun-2024 09:00Broken Clouds21°C2 mph, W59%10000m1011hPa84%
28-Jun-2024 12:00Broken Clouds21°C0 mph, W71%10000m1013hPa82%
28-Jun-2024 15:00Overcast Clouds28°C0 mph, SE94%10000m1014hPa55%
28-Jun-2024 18:00Overcast Clouds34°C2 mph, E92%10000m1010hPa39%
28-Jun-2024 21:00Few Clouds33°C2 mph, E16%10000m1007hPa37%
29-Jun-2024 00:00Few Clouds25°C2 mph, W22%10000m1009hPa63%
29-Jun-2024 03:00Clear Sky23°C2 mph, W7%10000m1012hPa74%
29-Jun-2024 06:00Scattered Clouds22°C0 mph, SW37%10000m1012hPa78%
29-Jun-2024 09:00Broken Clouds22°C0 mph, N72%10000m1012hPa80%
29-Jun-2024 12:00Broken Clouds22°C0 mph, SW78%10000m1013hPa80%
29-Jun-2024 15:00Broken Clouds27°C2 mph, SE84%10000m1015hPa62%
29-Jun-2024 18:00Broken Clouds33°C4 mph, SE69%10000m1012hPa43%
29-Jun-2024 21:00Scattered Clouds31°C2 mph, NW47%10000m1009hPa50%
30-Jun-2024 00:00Broken Clouds25°C2 mph, NW69%10000m1011hPa76%
30-Jun-2024 03:00Light Rain23°C2 mph, W100%10000m1014hPa84%
30-Jun-2024 06:00Light Rain21°C2 mph, W91%10000m1014hPa96%
30-Jun-2024 09:00Few Clouds20°C2 mph, W24%10000m1013hPa99%
30-Jun-2024 12:00Few Clouds20°C2 mph, W19%10000m1015hPa98%